Time;durP1;ratioP1;P1;durP2;ratioP2;P2;SDS_P1;SDS_P2;PMS_P1;PMS_P2;Temp;Humidity;BMP_temperature;BMP_pressure;BME280_temperature;BME280_humidity;BME280_pressure;Samples;Min_cycle;Max_cycle;Signal;HPM_P1;HPM_P2
2022/02/19 00:01:00;;;;;;;6.82;0.98;;;10.40;96.10;;;;;;5036985;28;20099;-59
2022/02/19 00:03:26;;;;;;;1.77;0.77;;;10.40;96.20;;;;;;5035578;28;20112;-59
2022/02/19 00:05:51;;;;;;;0.30;0.30;;;10.40;96.00;;;;;;5039588;28;20446;-59
2022/02/19 00:08:17;;;;;;;1.95;1.13;;;10.40;96.00;;;;;;5034132;28;20029;-59
2022/02/19 00:10:43;;;;;;;6.07;1.15;;;10.40;96.00;;;;;;5036522;28;20454;-59
2022/02/19 00:13:09;;;;;;;3.50;0.70;;;10.40;96.00;;;;;;5038813;28;20022;-58
2022/02/19 00:15:36;;;;;;;0.68;0.60;;;10.40;96.00;;;;;;5040590;28;20389;-59
2022/02/19 00:18:01;;;;;;;0.50;0.50;;;10.40;96.10;;;;;;5040031;28;20029;-59
2022/02/19 00:20:27;;;;;;;0.75;0.70;;;10.40;96.10;;;;;;5035032;28;20372;-58
2022/02/19 00:22:54;;;;;;;1.33;0.60;;;10.40;95.90;;;;;;5024049;28;20026;-59
2022/02/19 00:25:20;;;;;;;0.65;0.50;;;10.40;96.10;;;;;;5041664;28;20016;-59
2022/02/19 00:27:46;;;;;;;0.98;0.65;;;10.40;96.00;;;;;;5040085;28;20065;-59
2022/02/19 00:30:12;;;;;;;3.63;0.70;;;10.40;96.00;;;;;;5035267;28;20041;-59
2022/02/19 00:32:38;;;;;;;3.15;0.68;;;10.30;95.90;;;;;;5033415;28;20474;-59
2022/02/19 00:35:04;;;;;;;4.60;1.42;;;10.40;95.80;;;;;;5038750;28;20042;-59
2022/02/19 00:37:30;;;;;;;0.40;0.40;;;10.30;95.90;;;;;;5036273;28;20518;-58
2022/02/19 00:39:56;;;;;;;1.75;0.70;;;10.30;95.80;;;;;;5037135;28;20088;-58
2022/02/19 00:42:22;;;;;;;0.20;0.20;;;10.30;95.80;;;;;;5035058;28;20018;-59
2022/02/19 00:44:48;;;;;;;6.88;0.93;;;10.30;95.80;;;;;;5036928;28;20388;-58
2022/02/19 00:47:14;;;;;;;1.48;0.57;;;10.30;95.70;;;;;;5039459;28;20119;-59
2022/02/19 00:49:40;;;;;;;3.58;0.70;;;10.30;95.70;;;;;;5045415;28;20021;-58
2022/02/19 00:52:06;;;;;;;8.43;1.23;;;10.30;95.90;;;;;;5038127;28;20083;-59
2022/02/19 00:54:32;;;;;;;0.68;0.68;;;10.30;95.70;;;;;;5034037;28;20037;-59
2022/02/19 00:56:58;;;;;;;3.10;1.35;;;10.30;95.80;;;;;;5045256;28;20075;-59
2022/02/19 00:59:23;;;;;;;0.63;0.60;;;10.30;95.70;;;;;;5040367;28;20439;-58
2022/02/19 01:01:49;;;;;;;2.30;0.85;;;10.30;95.90;;;;;;5039201;28;20029;-59
2022/02/19 01:04:14;;;;;;;5.63;1.13;;;10.30;95.80;;;;;;5036427;28;20031;-58
2022/02/19 01:06:40;;;;;;;1.95;0.52;;;10.30;95.80;;;;;;5042322;28;20049;-59
2022/02/19 01:09:06;;;;;;;3.03;0.63;;;10.30;95.70;;;;;;5037266;28;20036;-59
2022/02/19 01:11:31;;;;;;;4.15;0.63;;;10.30;95.80;;;;;;5043723;28;20044;-58
2022/02/19 01:13:57;;;;;;;1.38;0.60;;;10.30;95.80;;;;;;5035103;28;20022;-59
2022/02/19 01:16:23;;;;;;;0.75;0.75;;;10.30;95.80;;;;;;5040279;28;20363;-58
2022/02/19 01:18:49;;;;;;;0.95;0.60;;;10.30;95.80;;;;;;5044165;28;20021;-59
2022/02/19 01:21:17;;;;;;;1.27;0.73;;;10.30;95.60;;;;;;5043990;28;20039;-59
2022/02/19 01:23:42;;;;;;;0.47;0.47;;;10.30;95.70;;;;;;5030099;28;20025;-59
2022/02/19 01:26:08;;;;;;;5.38;0.70;;;10.30;95.90;;;;;;5043575;28;20055;-59
2022/02/19 01:28:34;;;;;;;2.58;0.60;;;10.30;95.80;;;;;;5043130;28;20111;-59
2022/02/19 01:31:00;;;;;;;0.20;0.20;;;10.30;96.00;;;;;;5042089;28;20021;-58
2022/02/19 01:33:25;;;;;;;4.65;0.50;;;10.30;95.70;;;;;;5039184;28;20053;-58
2022/02/19 01:35:51;;;;;;;7.38;1.23;;;10.30;95.80;;;;;;5031114;28;20474;-59
2022/02/19 01:38:18;;;;;;;3.28;0.60;;;10.30;95.60;;;;;;5038318;28;20036;-59
2022/02/19 01:40:44;;;;;;;4.18;0.75;;;10.30;95.60;;;;;;5044448;28;20021;-59
2022/02/19 01:43:11;;;;;;;3.20;0.60;;;10.20;95.70;;;;;;5041286;28;20018;-59
2022/02/19 01:45:37;;;;;;;5.45;0.65;;;10.30;95.60;;;;;;5040084;28;20023;-58
2022/02/19 01:48:03;;;;;;;3.22;0.60;;;10.30;95.80;;;;;;5040308;28;20556;-59
2022/02/19 01:50:29;;;;;;;0.32;0.32;;;10.30;95.60;;;;;;5043052;28;20271;-58
2022/02/19 01:52:55;;;;;;;9.38;0.85;;;10.30;95.60;;;;;;5041702;28;20029;-58
2022/02/19 01:55:21;;;;;;;9.25;1.00;;;10.30;95.70;;;;;;5032625;28;20104;-58
2022/02/19 01:57:48;;;;;;;0.95;0.50;;;10.30;95.90;;;;;;5042587;28;20100;-58
2022/02/19 02:00:15;;;;;;;0.55;0.55;;;10.20;95.70;;;;;;5040587;28;20025;-59
2022/02/19 02:02:42;;;;;;;1.65;0.38;;;10.30;95.90;;;;;;5041256;28;20068;-59
2022/02/19 02:05:08;;;;;;;1.73;0.60;;;10.20;96.00;;;;;;5035177;28;20030;-59
2022/02/19 02:07:34;;;;;;;2.75;0.77;;;10.20;95.70;;;;;;5041698;28;20455;-59
2022/02/19 02:10:00;;;;;;;0.90;0.63;;;10.20;95.60;;;;;;5038690;28;20033;-59
2022/02/19 02:12:26;;;;;;;5.88;1.13;;;10.20;95.60;;;;;;5036810;28;20045;-59
2022/02/19 02:14:52;;;;;;;3.63;0.95;;;10.20;95.70;;;;;;5037593;28;20374;-59
2022/02/19 02:17:17;;;;;;;0.20;0.20;;;10.20;95.60;;;;;;5033468;28;20029;-59
2022/02/19 02:19:43;;;;;;;3.83;1.40;;;10.20;95.60;;;;;;5037011;28;20059;-59
2022/02/19 02:22:09;;;;;;;2.25;0.90;;;10.20;95.70;;;;;;5039980;28;20029;-59
2022/02/19 02:24:37;;;;;;;3.90;1.02;;;10.20;95.60;;;;;;5030487;28;20021;-59
2022/02/19 02:27:07;;;;;;;1.73;0.90;;;10.20;95.60;;;;;;5020253;28;20030;-59
2022/02/19 02:29:41;;;;;;;1.75;0.63;;;10.20;95.90;;;;;;5039833;28;20036;-58
2022/02/19 02:32:07;;;;;;;3.15;0.88;;;10.20;95.80;;;;;;5038124;28;20037;-59
2022/02/19 02:34:32;;;;;;;4.07;0.75;;;10.20;95.70;;;;;;5039643;28;20026;-59
2022/02/19 02:36:58;;;;;;;2.35;0.80;;;10.20;95.50;;;;;;5036862;28;20048;-58
2022/02/19 02:39:24;;;;;;;12.50;1.38;;;10.20;95.70;;;;;;5034149;28;20031;-59
2022/02/19 02:41:49;;;;;;;1.45;0.60;;;10.20;95.50;;;;;;5035895;28;20099;-59
2022/02/19 02:44:15;;;;;;;0.30;0.30;;;10.10;95.40;;;;;;5039432;28;20343;-59
2022/02/19 02:46:40;;;;;;;5.05;0.70;;;10.20;95.80;;;;;;5042488;28;20082;-59
2022/02/19 02:49:06;;;;;;;0.20;0.20;;;10.10;95.40;;;;;;5033516;28;20037;-59
2022/02/19 02:51:31;;;;;;;1.25;0.70;;;10.10;95.40;;;;;;5040795;28;20758;-58
2022/02/19 02:53:57;;;;;;;3.85;1.02;;;10.20;95.40;;;;;;5029356;28;20029;-59
2022/02/19 02:56:23;;;;;;;1.60;0.47;;;10.10;95.40;;;;;;5040193;28;20057;-59
2022/02/19 02:58:48;;;;;;;8.27;0.93;;;10.10;95.30;;;;;;5034393;28;20029;-59
2022/02/19 03:01:14;;;;;;;4.38;1.05;;;10.10;95.50;;;;;;5039977;28;20020;-59
2022/02/19 03:03:39;;;;;;;7.28;0.98;;;10.10;95.20;;;;;;5035648;28;20060;-59
2022/02/19 03:06:05;;;;;;;2.30;0.70;;;10.10;95.30;;;;;;5036677;28;20033;-59
2022/02/19 03:08:31;;;;;;;2.65;0.93;;;10.10;95.50;;;;;;5040041;28;20476;-59
2022/02/19 03:10:56;;;;;;;1.52;0.63;;;10.10;95.30;;;;;;5032409;28;20489;-58
2022/02/19 03:13:22;;;;;;;0.30;0.30;;;10.10;95.10;;;;;;5032954;28;20339;-60
2022/02/19 03:15:47;;;;;;;2.95;1.10;;;10.10;95.30;;;;;;5038026;28;20086;-59
2022/02/19 03:18:17;;;;;;;0.52;0.52;;;10.10;95.10;;;;;;5040850;28;20332;-59
2022/02/19 03:20:42;;;;;;;4.65;0.90;;;10.10;95.10;;;;;;5035736;28;20059;-59
2022/02/19 03:23:08;;;;;;;5.22;1.02;;;10.10;95.20;;;;;;5040516;28;20025;-59
2022/02/19 03:25:34;;;;;;;3.45;0.80;;;10.10;95.20;;;;;;5032760;28;20040;-59
2022/02/19 03:28:00;;;;;;;4.63;1.58;;;10.10;95.30;;;;;;5036339;28;20468;-59
2022/02/19 03:30:25;;;;;;;4.50;1.23;;;10.10;95.10;;;;;;5031926;28;20029;-59
2022/02/19 03:32:51;;;;;;;14.13;2.28;;;10.10;95.30;;;;;;5037553;28;20501;-59
2022/02/19 03:35:16;;;;;;;4.82;0.88;;;10.10;95.10;;;;;;5037934;28;20024;-59
2022/02/19 03:37:42;;;;;;;4.20;0.55;;;10.10;95.10;;;;;;5040222;28;20455;-59
2022/02/19 03:40:09;;;;;;;5.55;1.30;;;10.10;95.10;;;;;;5033369;28;20340;-59
2022/02/19 03:42:40;;;;;;;1.52;0.90;;;10.10;95.10;;;;;;5040003;28;20558;-59
2022/02/19 03:45:09;;;;;;;3.03;0.82;;;10.10;95.10;;;;;;5039565;28;20498;-59
2022/02/19 03:47:35;;;;;;;2.53;0.70;;;10.10;95.00;;;;;;5033743;28;20116;-59
2022/02/19 03:50:02;;;;;;;7.18;0.88;;;10.10;95.00;;;;;;5038142;28;20466;-59
2022/02/19 03:52:28;;;;;;;4.72;2.17;;;10.10;95.30;;;;;;5036439;28;20112;-59
2022/02/19 03:55:00;;;;;;;1.25;0.80;;;10.10;95.00;;;;;;5032720;28;20159;-59
2022/02/19 03:57:26;;;;;;;1.13;1.00;;;10.10;95.00;;;;;;5028285;28;20025;-59
2022/02/19 03:59:51;;;;;;;3.20;1.02;;;10.10;95.00;;;;;;5038738;28;20026;-59
2022/02/19 04:02:17;;;;;;;7.05;1.08;;;10.10;94.80;;;;;;5034855;28;20060;-59
2022/02/19 04:04:43;;;;;;;0.98;0.60;;;10.00;94.80;;;;;;5037160;28;20053;-59
2022/02/19 04:07:09;;;;;;;3.97;0.63;;;10.10;94.90;;;;;;5037706;28;20057;-59
2022/02/19 04:09:35;;;;;;;1.55;0.93;;;10.00;95.10;;;;;;5032742;28;20068;-59
2022/02/19 04:12:01;;;;;;;5.57;1.33;;;10.10;95.10;;;;;;5035510;28;20486;-59
2022/02/19 04:14:26;;;;;;;0.63;0.50;;;10.10;94.90;;;;;;5038052;28;20095;-59
2022/02/19 04:16:52;;;;;;;2.38;0.52;;;10.10;94.80;;;;;;5036796;28;20034;-59
2022/02/19 04:19:17;;;;;;;5.68;1.50;;;10.10;94.80;;;;;;5037479;28;20524;-58
2022/02/19 04:21:43;;;;;;;0.80;0.60;;;10.10;94.90;;;;;;5037957;28;20079;-59
2022/02/19 04:24:09;;;;;;;1.75;0.70;;;10.00;94.90;;;;;;5043424;28;20420;-59
2022/02/19 04:26:35;;;;;;;0.40;0.40;;;10.00;94.80;;;;;;5038164;28;20379;-59
2022/02/19 04:29:00;;;;;;;11.07;1.50;;;10.10;94.80;;;;;;5040391;28;20355;-59
2022/02/19 04:31:26;;;;;;;6.55;1.58;;;10.10;94.90;;;;;;5041879;28;20635;-59
2022/02/19 04:33:51;;;;;;;6.07;1.67;;;10.10;94.80;;;;;;5040771;28;20053;-58
2022/02/19 04:36:17;;;;;;;8.02;1.13;;;10.00;94.80;;;;;;5043732;28;20028;-58
2022/02/19 04:38:43;;;;;;;7.25;1.33;;;10.00;94.80;;;;;;5042638;28;20413;-59
2022/02/19 04:41:08;;;;;;;4.45;0.88;;;10.00;94.80;;;;;;5035396;28;20456;-59
2022/02/19 04:43:34;;;;;;;9.27;1.20;;;10.00;94.70;;;;;;5040646;28;20038;-59
2022/02/19 04:46:00;;;;;;;10.15;1.02;;;10.00;94.90;;;;;;5040992;28;20470;-59
2022/02/19 04:48:25;;;;;;;17.48;1.75;;;10.00;94.70;;;;;;5043276;28;20033;-59
2022/02/19 04:50:51;;;;;;;5.85;1.13;;;10.00;94.70;;;;;;5039546;28;20057;-59
2022/02/19 04:53:17;;;;;;;2.15;0.85;;;10.00;94.60;;;;;;5038778;28;20204;-59
2022/02/19 04:55:42;;;;;;;11.70;1.42;;;10.00;94.80;;;;;;5032813;28;20021;-59
2022/02/19 04:58:08;;;;;;;3.90;1.50;;;10.00;94.70;;;;;;5043144;28;20100;-59
2022/02/19 05:00:34;;;;;;;6.15;0.63;;;10.00;94.60;;;;;;5037180;28;20496;-59
2022/02/19 05:02:59;;;;;;;5.32;0.90;;;10.00;94.60;;;;;;5042699;28;20092;-59
2022/02/19 05:05:25;;;;;;;8.48;1.38;;;10.00;94.70;;;;;;5035883;28;20100;-59
2022/02/19 05:07:50;;;;;;;1.13;0.60;;;10.00;94.70;;;;;;5034396;28;20375;-59
2022/02/19 05:10:16;;;;;;;1.00;0.65;;;10.00;94.50;;;;;;5031344;28;20114;-59
2022/02/19 05:12:42;;;;;;;8.55;1.38;;;10.00;94.60;;;;;;5032738;28;20363;-59
2022/02/19 05:15:12;;;;;;;3.50;0.70;;;10.00;94.60;;;;;;5029609;28;20021;-59
2022/02/19 05:17:45;;;;;;;1.42;1.05;;;10.00;94.60;;;;;;5044195;28;20402;-59
2022/02/19 05:20:11;;;;;;;5.82;1.33;;;10.00;94.50;;;;;;5024063;28;20069;-59
2022/02/19 05:22:37;;;;;;;5.85;1.10;;;9.90;94.60;;;;;;5039509;28;20536;-59
2022/02/19 05:25:03;;;;;;;6.57;0.93;;;10.00;94.50;;;;;;5039785;28;20021;-59
2022/02/19 05:27:28;;;;;;;0.77;0.63;;;9.90;94.70;;;;;;5036224;28;20112;-59
2022/02/19 05:29:54;;;;;;;14.18;1.73;;;9.90;94.50;;;;;;5038457;28;20160;-59
2022/02/19 05:32:20;;;;;;;6.22;0.90;;;9.90;94.50;;;;;;5038473;28;20041;-59
2022/02/19 05:34:46;;;;;;;7.10;0.98;;;10.00;94.50;;;;;;5038701;28;20017;-59
2022/02/19 05:37:11;;;;;;;1.27;0.80;;;10.00;94.40;;;;;;5035311;28;20043;-59
2022/02/19 05:39:37;;;;;;;1.92;0.55;;;10.00;94.30;;;;;;5041309;28;20040;-59
2022/02/19 05:42:03;;;;;;;9.57;1.17;;;9.90;94.20;;;;;;5038674;28;20031;-59
2022/02/19 05:44:28;;;;;;;2.60;1.10;;;9.90;94.40;;;;;;5032695;28;20370;-59
2022/02/19 05:46:54;;;;;;;13.18;0.70;;;9.90;94.40;;;;;;5038455;28;20025;-59
2022/02/19 05:49:20;;;;;;;14.65;1.63;;;9.90;94.30;;;;;;5040382;28;20359;-59
2022/02/19 05:51:45;;;;;;;4.35;0.95;;;9.90;94.60;;;;;;5042817;28;20067;-59
2022/02/19 05:54:11;;;;;;;9.82;1.33;;;10.00;94.30;;;;;;5037131;28;20025;-59
2022/02/19 05:56:36;;;;;;;4.50;0.88;;;9.90;94.50;;;;;;5032134;28;20018;-59
2022/02/19 05:59:02;;;;;;;5.57;1.27;;;9.90;94.20;;;;;;5041185;28;20017;-59
2022/02/19 06:01:28;;;;;;;5.65;1.20;;;9.90;94.30;;;;;;5035898;28;20029;-59
2022/02/19 06:03:53;;;;;;;5.40;0.90;;;9.90;94.30;;;;;;5035868;28;20029;-59
2022/02/19 06:06:19;;;;;;;7.75;0.85;;;9.90;94.20;;;;;;5035799;28;20038;-59
2022/02/19 06:08:45;;;;;;;4.18;1.33;;;10.00;94.20;;;;;;5036270;28;20108;-59
2022/02/19 06:11:10;;;;;;;6.88;0.75;;;9.90;94.30;;;;;;5038649;28;20044;-59
2022/02/19 06:13:36;;;;;;;9.50;1.67;;;9.90;94.20;;;;;;5039129;28;20051;-59
2022/02/19 06:16:01;;;;;;;4.03;0.70;;;9.90;94.10;;;;;;5038787;28;20033;-59
2022/02/19 06:18:27;;;;;;;2.92;0.90;;;9.90;94.20;;;;;;5037399;28;20347;-59
2022/02/19 06:20:53;;;;;;;6.55;1.02;;;9.90;94.20;;;;;;5041526;28;20018;-59
2022/02/19 06:23:18;;;;;;;3.83;0.95;;;9.90;94.00;;;;;;5040297;28;20351;-59
2022/02/19 06:25:44;;;;;;;2.83;0.80;;;9.90;94.20;;;;;;5036131;28;20709;-59
2022/02/19 06:28:10;;;;;;;7.10;0.93;;;10.00;94.10;;;;;;5042867;28;20082;-59
2022/02/19 06:30:35;;;;;;;3.53;0.68;;;9.90;94.10;;;;;;5036054;28;20045;-58
2022/02/19 06:33:01;;;;;;;5.82;1.20;;;9.90;94.00;;;;;;5037789;28;20049;-59
2022/02/19 06:35:27;;;;;;;9.05;0.75;;;9.90;94.20;;;;;;5040861;28;20024;-59
2022/02/19 06:37:53;;;;;;;4.47;0.80;;;9.90;94.00;;;;;;5039862;28;20495;-59
2022/02/19 06:40:18;;;;;;;4.70;1.20;;;9.90;94.00;;;;;;5037993;28;20405;-59
2022/02/19 06:42:44;;;;;;;8.52;0.75;;;9.90;94.00;;;;;;5037182;28;20436;-59
2022/02/19 06:45:10;;;;;;;10.90;1.25;;;9.90;94.10;;;;;;5037597;28;20029;-59
2022/02/19 06:47:37;;;;;;;14.90;1.30;;;9.90;94.30;;;;;;5029674;28;21746;-59
2022/02/19 06:50:05;;;;;;;3.97;1.10;;;9.90;93.90;;;;;;5034227;28;20512;-59
2022/02/19 06:52:30;;;;;;;4.10;0.52;;;9.90;94.20;;;;;;5039488;28;20132;-59
2022/02/19 06:54:56;;;;;;;5.78;1.50;;;9.90;93.90;;;;;;5029967;28;20429;-59
2022/02/19 06:57:22;;;;;;;3.83;0.70;;;9.90;94.00;;;;;;5037855;28;20032;-59
2022/02/19 06:59:49;;;;;;;1.90;0.80;;;9.90;94.10;;;;;;5037684;28;20455;-59
2022/02/19 07:02:16;;;;;;;2.42;0.68;;;9.90;94.20;;;;;;5030398;28;20021;-59
2022/02/19 07:04:42;;;;;;;3.55;1.00;;;9.90;94.40;;;;;;5036150;28;20359;-59
2022/02/19 07:07:07;;;;;;;6.78;0.95;;;9.90;94.30;;;;;;5037327;28;20104;-59
2022/02/19 07:09:33;;;;;;;3.20;0.95;;;9.90;94.20;;;;;;5039488;28;20090;-59
2022/02/19 07:11:59;;;;;;;4.10;0.52;;;9.90;94.20;;;;;;5028789;28;20044;-59
2022/02/19 07:14:26;;;;;;;5.40;0.95;;;9.90;94.10;;;;;;5037890;28;20087;-59
2022/02/19 07:16:52;;;;;;;0.63;0.60;;;9.90;94.30;;;;;;5035112;28;20014;-59
2022/02/19 07:19:19;;;;;;;2.28;0.80;;;9.90;94.00;;;;;;5032669;28;20473;-59
2022/02/19 07:21:46;;;;;;;8.23;1.02;;;9.90;94.20;;;;;;5037223;28;20037;-59
2022/02/19 07:24:12;;;;;;;10.82;1.33;;;9.90;94.30;;;;;;5035232;28;20018;-59
2022/02/19 07:26:39;;;;;;;10.48;1.05;;;9.90;94.20;;;;;;5034268;28;20030;-59
2022/02/19 07:29:04;;;;;;;1.20;0.55;;;9.90;94.30;;;;;;5033596;28;20351;-59
2022/02/19 07:31:30;;;;;;;8.80;0.65;;;9.90;94.30;;;;;;5035914;28;20467;-60
2022/02/19 07:33:56;;;;;;;3.00;0.60;;;9.90;94.50;;;;;;5030728;28;20066;-59
2022/02/19 07:36:21;;;;;;;6.93;1.35;;;10.00;94.10;;;;;;5040350;28;20025;-59
2022/02/19 07:38:47;;;;;;;5.18;1.42;;;10.00;94.10;;;;;;5027656;28;20105;-59
2022/02/19 07:41:12;;;;;;;8.50;0.98;;;10.00;94.50;;;;;;5034084;28;20036;-60
2022/02/19 07:43:38;;;;;;;2.88;0.50;;;10.10;93.60;;;;;;5029667;28;20441;-59
2022/02/19 07:46:03;;;;;;;4.22;1.13;;;10.10;93.50;;;;;;5041835;28;20021;-59
2022/02/19 07:48:29;;;;;;;1.48;1.05;;;10.20;94.00;;;;;;5037055;28;20669;-59
2022/02/19 07:59:08;;;;;;;5.47;1.15;;;10.30;93.80;;;;;;5038332;28;20076;-60
2022/02/19 08:01:34;;;;;;;4.95;0.60;;;10.30;93.50;;;;;;5038587;28;20113;-60
2022/02/19 08:03:59;;;;;;;9.93;0.95;;;10.30;93.10;;;;;;5033919;28;20116;-60
2022/02/19 08:06:25;;;;;;;6.55;1.00;;;10.40;93.00;;;;;;5041676;28;20083;-61
2022/02/19 08:08:50;;;;;;;4.00;0.90;;;10.40;92.90;;;;;;5030143;28;20050;-60
2022/02/19 08:11:16;;;;;;;3.75;0.85;;;10.50;92.90;;;;;;5031781;28;20029;-60
2022/02/19 08:13:42;;;;;;;5.78;0.80;;;10.50;92.90;;;;;;5021999;28;20128;-61
2022/02/19 08:16:11;;;;;;;5.78;0.70;;;10.50;92.70;;;;;;5035658;28;20359;-60
2022/02/19 08:18:37;;;;;;;3.35;0.73;;;10.50;92.40;;;;;;5036860;28;20095;-60
2022/02/19 08:21:03;;;;;;;7.57;0.60;;;10.60;92.70;;;;;;5035409;28;20481;-60
2022/02/19 08:23:29;;;;;;;5.50;0.95;;;10.60;92.40;;;;;;5040210;28;20068;-60
2022/02/19 08:25:55;;;;;;;7.78;0.88;;;10.60;92.20;;;;;;5034568;28;20064;-60
2022/02/19 08:28:21;;;;;;;6.38;0.82;;;10.70;92.40;;;;;;5035050;28;20079;-60
2022/02/19 08:30:47;;;;;;;3.75;0.75;;;10.70;92.20;;;;;;5031374;28;20026;-60
2022/02/19 08:33:13;;;;;;;6.43;1.25;;;10.70;92.20;;;;;;5030937;28;20034;-61
2022/02/19 08:35:41;;;;;;;9.73;1.60;;;10.80;92.30;;;;;;5034529;28;20488;-61
2022/02/19 08:38:08;;;;;;;5.18;0.90;;;10.80;92.20;;;;;;5031185;28;20037;-60
2022/02/19 08:40:34;;;;;;;10.38;1.20;;;10.80;92.10;;;;;;5043062;28;20024;-61
2022/02/19 08:43:00;;;;;;;5.25;0.82;;;10.90;92.10;;;;;;5036277;28;20032;-62
2022/02/19 08:45:26;;;;;;;4.78;1.10;;;10.90;92.20;;;;;;5040705;28;20025;-62
2022/02/19 08:47:54;;;;;;;2.13;0.60;;;10.90;92.00;;;;;;5039337;28;20036;-62
2022/02/19 08:50:20;;;;;;;8.30;1.60;;;10.90;92.10;;;;;;5039706;28;20032;-62
2022/02/19 08:52:50;;;;;;;6.43;0.98;;;10.90;92.20;;;;;;5036652;28;20375;-61
2022/02/19 08:55:16;;;;;;;9.27;0.75;;;10.90;92.00;;;;;;5030750;28;20021;-62
2022/02/19 08:57:44;;;;;;;10.77;1.60;;;10.90;92.00;;;;;;5027812;28;20037;-61
2022/02/19 09:00:12;;;;;;;8.32;1.60;;;10.90;91.90;;;;;;5026723;28;20092;-59
2022/02/19 09:02:38;;;;;;;5.15;0.93;;;10.90;91.80;;;;;;5033274;28;20570;-58
2022/02/19 09:05:05;;;;;;;3.33;0.93;;;10.90;91.80;;;;;;5032440;28;20398;-59
2022/02/19 09:07:34;;;;;;;1.05;0.88;;;11.00;91.90;;;;;;5029928;28;20110;-59
2022/02/19 09:10:00;;;;;;;7.65;1.10;;;11.00;91.70;;;;;;5033787;28;20025;-59
2022/02/19 09:12:25;;;;;;;0.60;0.40;;;11.00;91.70;;;;;;5026817;28;20336;-59
2022/02/19 09:14:51;;;;;;;3.63;0.90;;;11.00;91.50;;;;;;5036601;28;20481;-59
2022/02/19 09:17:17;;;;;;;4.05;0.88;;;11.00;91.40;;;;;;5031925;28;20572;-59
2022/02/19 09:19:43;;;;;;;2.63;1.00;;;11.00;92.10;;;;;;5039406;28;20120;-59
2022/02/19 09:22:09;;;;;;;2.53;0.75;;;11.00;92.00;;;;;;5038223;28;20064;-59
2022/02/19 09:24:34;;;;;;;5.18;0.68;;;11.10;91.80;;;;;;5042970;28;20053;-59
2022/02/19 09:27:01;;;;;;;4.72;0.70;;;11.10;92.00;;;;;;5042148;28;20097;-58
2022/02/19 09:29:27;;;;;;;5.05;0.70;;;11.10;91.70;;;;;;5038797;28;20017;-59
2022/02/19 09:31:53;;;;;;;11.38;1.40;;;11.10;92.10;;;;;;5039304;28;20041;-59
2022/02/19 09:34:21;;;;;;;3.95;0.93;;;11.10;92.40;;;;;;5032857;28;20450;-59
2022/02/19 09:36:46;;;;;;;2.60;0.88;;;11.10;92.10;;;;;;5044941;28;20025;-59
2022/02/19 09:39:13;;;;;;;2.90;0.82;;;11.10;92.20;;;;;;5043224;28;20030;-59
2022/02/19 09:41:42;;;;;;;3.17;0.80;;;11.10;92.20;;;;;;5038563;28;20494;-59
2022/02/19 09:44:08;;;;;;;2.92;1.10;;;11.10;92.60;;;;;;5025051;28;20028;-59
2022/02/19 09:46:34;;;;;;;3.58;0.90;;;11.20;93.00;;;;;;5042513;28;20362;-59
2022/02/19 09:49:03;;;;;;;1.67;0.80;;;11.20;93.00;;;;;;5040171;28;20029;-59
2022/02/19 09:51:29;;;;;;;23.23;1.38;;;11.20;92.90;;;;;;5033522;28;20041;-60
2022/02/19 09:53:55;;;;;;;1.67;1.38;;;11.20;93.30;;;;;;5037404;28;20033;-59
2022/02/19 09:56:24;;;;;;;5.40;1.35;;;11.20;94.90;;;;;;5041992;28;20142;-60
2022/02/19 09:58:50;;;;;;;8.00;1.50;;;11.20;94.10;;;;;;5037909;28;20372;-59
2022/02/19 10:01:16;;;;;;;0.63;0.55;;;11.20;94.10;;;;;;5038292;28;20030;-59
2022/02/19 10:03:44;;;;;;;4.45;1.05;;;11.20;94.80;;;;;;5043094;28;20024;-59
2022/02/19 10:06:11;;;;;;;6.93;1.00;;;11.20;95.50;;;;;;5039246;28;20422;-59
2022/02/19 10:08:37;;;;;;;0.32;0.32;;;11.30;95.30;;;;;;5040920;28;20021;-59
2022/02/19 10:11:04;;;;;;;1.88;0.47;;;11.30;95.20;;;;;;5039051;28;20108;-60
2022/02/19 10:13:35;;;;;;;7.53;0.98;;;11.30;95.30;;;;;;5033882;28;20030;-60
2022/02/19 10:16:05;;;;;;;2.58;0.70;;;11.30;94.80;;;;;;5039500;28;20036;-59
2022/02/19 10:18:36;;;;;;;2.08;1.08;;;11.30;94.90;;;;;;5040471;28;20075;-59
2022/02/19 10:21:15;;;;;;;0.93;0.63;;;11.30;94.80;;;;;;5041284;28;20034;-60
2022/02/19 10:23:47;;;;;;;10.98;2.15;;;11.30;94.40;;;;;;5038232;28;20503;-59
2022/02/19 10:26:15;;;;;;;1.05;0.70;;;11.40;94.10;;;;;;5040785;28;20033;-58
2022/02/19 10:29:05;;;;;;;0.85;0.50;;;11.40;93.90;;;;;;5034494;28;20025;-59
2022/02/19 10:31:32;;;;;;;3.83;1.10;;;11.40;94.00;;;;;;5039817;28;20480;-59
2022/02/19 10:34:08;;;;;;;2.28;0.65;;;11.40;94.30;;;;;;5038514;28;20742;-59
2022/02/19 10:36:51;;;;;;;3.38;1.20;;;11.50;93.90;;;;;;5023347;28;20459;-59
2022/02/19 10:39:27;;;;;;;1.58;0.77;;;11.50;94.30;;;;;;5038223;28;20467;-59
2022/02/19 10:41:56;;;;;;;2.85;1.00;;;11.40;94.20;;;;;;5036166;28;20037;-59
2022/02/19 10:44:27;;;;;;;0.57;0.38;;;11.60;93.20;;;;;;5035235;28;20026;-59
2022/02/19 10:46:55;;;;;;;2.85;0.60;;;11.70;93.10;;;;;;5042944;28;20032;-60
2022/02/19 10:49:22;;;;;;;3.80;0.80;;;11.60;93.00;;;;;;5038677;28;20029;-60
2022/02/19 10:51:48;;;;;;;6.72;0.88;;;11.70;92.20;;;;;;5038556;28;20038;-59
2022/02/19 10:54:21;;;;;;;2.90;0.82;;;11.70;92.50;;;;;;5037365;28;20026;-59
2022/02/19 10:56:46;;;;;;;4.72;0.70;;;11.70;92.20;;;;;;5038959;28;20082;-59
2022/02/19 10:59:15;;;;;;;3.53;1.05;;;11.70;92.20;;;;;;5036617;28;20037;-59
2022/02/19 11:01:44;;;;;;;0.47;0.47;;;11.70;92.30;;;;;;5036097;28;20032;-60
2022/02/19 11:04:12;;;;;;;10.30;1.88;;;11.80;92.80;;;;;;5033802;28;20517;-60
2022/02/19 11:06:38;;;;;;;4.78;0.93;;;11.80;92.40;;;;;;5041054;28;20116;-60
2022/02/19 11:09:06;;;;;;;5.63;1.05;;;11.80;93.10;;;;;;5039000;28;20034;-60
2022/02/19 11:11:37;;;;;;;2.25;1.00;;;11.80;93.10;;;;;;5038245;28;20022;-54
2022/02/19 11:14:07;;;;;;;2.28;0.68;;;11.80;91.00;;;;;;5030869;28;20068;-55
2022/02/19 11:16:35;;;;;;;1.85;0.85;;;11.40;79.40;;;;;;5040585;28;20110;-55
2022/02/19 11:19:01;;;;;;;1.48;0.75;;;11.30;76.60;;;;;;5036823;28;20028;-55
2022/02/19 11:21:28;;;;;;;2.75;0.70;;;11.20;75.00;;;;;;5032820;28;20056;-55
2022/02/19 11:23:57;;;;;;;2.30;0.77;;;11.20;72.50;;;;;;5042228;28;20021;-52
2022/02/19 11:26:26;;;;;;;2.13;1.00;;;11.20;73.00;;;;;;5034473;28;20037;-53
2022/02/19 11:28:56;;;;;;;1.73;0.68;;;11.20;73.50;;;;;;5025464;28;20022;-51
2022/02/19 11:31:28;;;;;;;8.38;1.00;;;11.20;68.30;;;;;;5012556;28;20046;-50
2022/02/19 11:33:56;;;;;;;3.70;0.70;;;11.20;66.60;;;;;;5011015;28;20423;-50
2022/02/19 11:36:30;;;;;;;2.65;1.00;;;11.20;66.20;;;;;;5019492;28;20092;-51
2022/02/19 11:38:56;;;;;;;1.20;0.65;;;11.20;62.30;;;;;;5030968;28;20474;-50
2022/02/19 11:41:46;;;;;;;5.47;0.65;;;11.10;61.00;;;;;;5030444;28;20057;-50
2022/02/19 11:44:21;;;;;;;2.70;0.40;;;11.10;62.90;;;;;;5025259;28;20352;-51
2022/02/19 11:46:47;;;;;;;1.85;0.85;;;11.10;58.30;;;;;;5027440;28;20037;-50
2022/02/19 11:49:26;;;;;;;0.57;0.43;;;11.00;59.20;;;;;;5031262;28;20052;-50
2022/02/19 11:52:04;;;;;;;0.47;0.45;;;11.10;64.00;;;;;;5010174;28;20336;-50
2022/02/19 11:54:30;;;;;;;2.38;1.00;;;11.10;59.30;;;;;;5011586;28;20429;-50
2022/02/19 11:56:57;;;;;;;0.82;0.68;;;11.10;58.00;;;;;;5011897;28;20036;-50
2022/02/19 11:59:41;;;;;;;0.30;0.30;;;11.10;64.20;;;;;;5010873;28;20117;-51
2022/02/19 12:02:18;;;;;;;0.90;0.90;;;11.10;59.50;;;;;;5010894;28;20069;-51
2022/02/19 12:05:04;;;;;;;6.90;1.05;;;11.10;66.20;;;;;;5011090;28;20026;-51
2022/02/19 12:07:30;;;;;;;1.30;0.68;;;11.10;67.50;;;;;;5016840;28;20056;-51
2022/02/19 12:10:08;;;;;;;6.90;0.75;;;11.20;65.80;;;;;;5029868;28;20061;-51
2022/02/19 12:13:05;;;;;;;1.70;0.65;;;11.10;64.00;;;;;;5029919;28;20041;-51
2022/02/19 12:15:31;;;;;;;2.10;0.82;;;11.20;66.10;;;;;;5016155;28;20403;-51
2022/02/19 12:17:57;;;;;;;6.63;1.92;;;11.20;67.10;;;;;;5017410;28;20078;-51
2022/02/19 12:20:25;;;;;;;9.60;2.45;;;11.20;67.40;;;;;;5030869;28;20056;-51
2022/02/19 12:22:53;;;;;;;2.95;1.45;;;11.20;69.20;;;;;;5012822;28;20026;-51
2022/02/19 12:25:19;;;;;;;3.83;0.90;;;11.20;62.60;;;;;;5011205;28;20034;-51
2022/02/19 12:28:17;;;;;;;6.43;1.00;;;11.10;63.20;;;;;;5011200;28;20029;-50
2022/02/19 12:30:44;;;;;;;0.80;0.75;;;11.10;61.80;;;;;;5010557;28;20037;-51
2022/02/19 12:33:11;;;;;;;6.47;0.85;;;11.10;60.50;;;;;;5008616;28;20038;-51
2022/02/19 12:35:40;;;;;;;3.10;0.90;;;11.10;60.50;;;;;;5010837;28;20088;-51
2022/02/19 12:38:06;;;;;;;3.05;0.60;;;11.10;62.10;;;;;;5014405;28;20029;-51
2022/02/19 12:40:32;;;;;;;2.00;0.73;;;11.10;61.70;;;;;;5023628;28;20071;-50
2022/02/19 12:42:59;;;;;;;1.75;0.63;;;11.00;62.00;;;;;;5021661;28;20466;-51
2022/02/19 12:45:24;;;;;;;2.30;0.95;;;11.00;60.10;;;;;;5023069;28;20037;-50
2022/02/19 12:47:50;;;;;;;0.90;0.50;;;11.00;59.60;;;;;;5024174;28;20022;-50
2022/02/19 12:50:18;;;;;;;8.32;0.65;;;10.90;59.10;;;;;;5024850;28;20013;-50
2022/02/19 12:52:51;;;;;;;5.60;1.33;;;10.90;60.80;;;;;;5022019;28;20041;-50
2022/02/19 12:55:18;;;;;;;2.85;1.38;;;10.90;60.60;;;;;;5032669;28;20025;-50